Time;durP1;ratioP1;P1;durP2;ratioP2;P2;SDS_P1;SDS_P2;PMS_P1;PMS_P2;Temp;Humidity;BMP_temperature;BMP_pressure;BME280_temperature;BME280_humidity;BME280_pressure;Samples;Min_cycle;Max_cycle;Signal;HPM_P1;HPM_P2
2022/11/27 00:01:35;;;;;;;33.42;23.12;;;;;;;3.97;81.46;102562.31;1674058;83;22043;-90
2022/11/27 00:04:02;;;;;;;36.25;23.45;;;;;;;4.02;81.47;102570.12;1670382;83;21068;-91
2022/11/27 00:06:29;;;;;;;40.05;25.50;;;;;;;4.06;81.42;102569.97;1673761;83;21036;-91
2022/11/27 00:08:56;;;;;;;37.73;25.55;;;;;;;4.09;81.40;102567.59;1665257;83;21095;-91
2022/11/27 00:11:27;;;;;;;36.60;24.35;;;;;;;4.11;81.41;102557.30;1675083;83;22039;-91
2022/11/27 00:13:58;;;;;;;36.45;23.50;;;;;;;4.14;81.41;102564.07;1671547;83;22397;-91
2022/11/27 00:16:25;;;;;;;38.17;24.50;;;;;;;4.18;81.46;102564.83;1667440;83;21105;-90
2022/11/27 00:18:52;;;;;;;37.83;23.67;;;;;;;4.21;81.43;102563.78;1653226;84;21067;-90
2022/11/27 00:21:27;;;;;;;39.70;25.17;;;;;;;4.26;81.44;102558.52;1677812;83;21112;-90
2022/11/27 00:23:56;;;;;;;37.85;25.50;;;;;;;4.28;81.39;102559.58;1672978;83;21464;-91
2022/11/27 00:26:26;;;;;;;39.50;24.92;;;;;;;4.32;81.43;102557.72;1645891;84;21889;-91
2022/11/27 00:28:53;;;;;;;38.15;24.80;;;;;;;4.34;81.32;102553.94;1653625;85;21088;-89
2022/11/27 00:31:28;;;;;;;40.88;24.32;;;;;;;4.36;81.32;102557.17;1669682;83;21123;-90
2022/11/27 00:34:01;;;;;;;36.90;24.10;;;;;;;4.37;81.27;102560.67;1673005;83;21595;-90
2022/11/27 00:36:34;;;;;;;40.28;24.40;;;;;;;4.37;81.27;102556.36;1661991;84;21099;-90
2022/11/27 00:39:10;;;;;;;34.48;23.80;;;;;;;4.39;81.28;102550.91;1643217;85;23107;-89
2022/11/27 00:41:36;;;;;;;34.80;24.43;;;;;;;4.40;81.21;102560.53;1669416;83;21150;-90
2022/11/27 00:44:09;;;;;;;38.28;24.37;;;;;;;4.39;81.27;102552.20;1671707;83;21326;-90
2022/11/27 00:46:36;;;;;;;36.65;24.10;;;;;;;4.40;81.20;102555.31;1673949;83;21977;-90
2022/11/27 00:49:09;;;;;;;34.75;23.92;;;;;;;4.41;81.24;102556.21;1688618;83;21128;-90
2022/11/27 00:51:35;;;;;;;34.78;22.73;;;;;;;4.42;81.26;102555.44;1645376;84;21764;-91
2022/11/27 00:54:04;;;;;;;36.60;24.23;;;;;;;4.44;81.27;102558.67;1658208;82;21585;-90
2022/11/27 00:56:37;;;;;;;34.65;24.50;;;;;;;4.45;81.26;102560.91;1590320;86;21140;-90
2022/11/27 00:59:13;;;;;;;37.25;24.87;;;;;;;4.46;81.27;102560.10;1608749;87;27688;-90
2022/11/27 01:01:50;;;;;;;40.92;25.48;;;;;;;4.47;81.24;102562.84;1611501;87;21454;-90
2022/11/27 01:04:17;;;;;;;35.03;23.47;;;;;;;4.47;81.20;102552.41;1610069;86;21792;-89
2022/11/27 01:06:44;;;;;;;38.48;26.17;;;;;;;4.47;81.18;102556.31;1646480;84;21109;-89
2022/11/27 01:09:17;;;;;;;35.92;23.73;;;;;;;4.37;81.16;102535.50;1637315;84;21165;-89
2022/11/27 01:11:44;;;;;;;36.17;23.35;;;;;;;4.48;81.15;102550.30;1642986;84;21047;-90
2022/11/27 01:14:17;;;;;;;39.40;24.70;;;;;;;4.49;81.19;102556.44;1634404;85;21135;-91
2022/11/27 01:16:45;;;;;;;33.95;22.75;;;;;;;4.50;81.20;102552.13;1629332;86;21845;-89
2022/11/27 01:19:13;;;;;;;39.00;23.60;;;;;;;4.51;81.19;102550.05;1647314;84;21224;-90
2022/11/27 01:21:44;;;;;;;39.27;23.50;;;;;;;4.52;81.15;102548.84;1653201;84;21076;-90
2022/11/27 01:24:17;;;;;;;36.15;22.40;;;;;;;4.53;81.11;102551.98;1654850;84;20980;-90
2022/11/27 01:26:45;;;;;;;34.53;21.27;;;;;;;4.55;81.15;102548.19;1621653;86;21035;-90
2022/11/27 01:29:12;;;;;;;35.33;23.27;;;;;;;4.54;81.07;102552.47;1629976;86;22966;-90
2022/11/27 01:31:40;;;;;;;33.65;22.02;;;;;;;4.54;81.02;102555.08;1659122;84;21896;-90
2022/11/27 01:34:15;;;;;;;35.78;22.25;;;;;;;4.54;81.00;102552.88;1615668;86;20994;-89
2022/11/27 01:36:42;;;;;;;32.85;21.10;;;;;;;4.53;81.05;102548.47;1598382;87;21533;-90
2022/11/27 01:39:17;;;;;;;32.53;20.97;;;;;;;4.54;81.07;102545.95;1607265;86;20944;-92
2022/11/27 01:41:48;;;;;;;32.03;21.52;;;;;;;4.56;81.04;102551.30;1619658;85;22630;-90
2022/11/27 01:44:28;;;;;;;30.85;20.02;;;;;;;4.57;81.08;102547.51;1666038;84;21025;-91
2022/11/27 01:47:04;;;;;;;33.28;21.40;;;;;;;4.56;81.03;102546.08;1645636;84;21034;-91
2022/11/27 01:49:43;;;;;;;29.27;20.37;;;;;;;4.54;81.01;102556.39;1645427;83;21050;-91
2022/11/27 01:52:33;;;;;;;27.70;18.48;;;;;;;4.52;81.01;102551.85;1648861;84;21004;-91
2022/11/27 01:55:04;;;;;;;28.35;19.85;;;;;;;4.53;81.05;102567.62;1649213;84;21717;-91
2022/11/27 01:57:41;;;;;;;29.30;18.10;;;;;;;4.48;81.03;102552.00;1646948;85;21064;-92
2022/11/27 02:00:16;;;;;;;29.10;17.70;;;;;;;4.51;81.07;102560.48;1670061;83;21005;-92
2022/11/27 02:02:45;;;;;;;29.98;17.92;;;;;;;4.52;81.12;102563.19;1661923;83;20989;-90
2022/11/27 02:05:21;;;;;;;23.92;16.05;;;;;;;4.55;81.20;102562.53;1679331;83;20969;-90
2022/11/27 02:07:53;;;;;;;25.10;15.75;;;;;;;4.57;81.19;102565.77;1669029;83;20983;-91
2022/11/27 02:10:20;;;;;;;24.85;15.75;;;;;;;4.60;81.18;102571.64;1680396;83;21017;-91
2022/11/27 02:12:57;;;;;;;22.27;13.70;;;;;;;4.63;81.17;102570.15;1678242;83;21071;-91
2022/11/27 02:15:35;;;;;;;20.97;14.00;;;;;;;4.67;81.17;102576.15;1681910;83;20969;-91
2022/11/27 02:18:31;;;;;;;17.80;11.88;;;;;;;4.68;81.10;102570.13;1681602;83;21442;-90
2022/11/27 02:21:32;;;;;;;20.15;12.03;;;;;;;4.73;81.14;102569.19;1659173;84;21761;-90
2022/11/27 02:24:27;;;;;;;18.98;12.03;;;;;;;4.78;81.07;102567.83;1651139;84;21634;-90
2022/11/27 02:27:13;;;;;;;;;;;;;;;4.82;81.00;102566.00;1676033;83;21387;-90
2022/11/27 02:29:40;;;;;;;16.73;10.90;;;;;;;4.86;80.97;102564.12;1675070;83;20346;-91
2022/11/27 02:32:17;;;;;;;15.78;11.57;;;;;;;4.89;80.89;102565.16;1636881;85;21421;-91
2022/11/27 02:35:10;;;;;;;14.73;10.23;;;;;;;4.92;80.88;102566.67;1652890;84;21812;-91
2022/11/27 02:37:47;;;;;;;16.57;11.57;;;;;;;4.91;80.81;102557.95;1676607;83;20993;-91
2022/11/27 02:40:36;;;;;;;16.90;10.23;;;;;;;4.93;80.73;102554.16;1676451;83;21008;-90
2022/11/27 02:43:08;;;;;;;15.08;10.72;;;;;;;4.93;80.73;102552.84;1682229;83;21430;-91
2022/11/27 02:45:38;;;;;;;14.90;10.23;;;;;;;4.93;80.70;102558.97;1676455;83;21052;-91
2022/11/27 02:48:05;;;;;;;14.15;9.93;;;;;;;4.91;80.66;102555.34;1678239;83;23501;-90
2022/11/27 02:50:32;;;;;;;14.75;9.65;;;;;;;4.92;80.73;102557.55;1682548;83;21098;-90
2022/11/27 02:53:01;;;;;;;13.98;9.33;;;;;;;4.92;80.73;102550.65;1688068;83;21094;-90
2022/11/27 02:55:31;;;;;;;12.07;8.33;;;;;;;4.93;80.68;102561.98;1645035;84;21080;-91
2022/11/27 02:57:58;;;;;;;11.65;8.25;;;;;;;4.91;80.66;102560.55;1633999;84;21604;-92
2022/11/27 03:00:24;;;;;;;13.55;8.03;;;;;;;4.92;80.70;102553.62;1641813;84;21750;-91
2022/11/27 03:03:00;;;;;;;11.05;8.40;;;;;;;4.92;80.66;102553.62;1642547;85;21081;-91
2022/11/27 03:05:30;;;;;;;12.75;8.78;;;;;;;4.91;80.65;102553.13;1634476;86;21076;-91
2022/11/27 03:08:01;;;;;;;12.43;8.73;;;;;;;4.90;80.67;102550.92;1652900;86;21067;-91
2022/11/27 03:10:33;;;;;;;14.23;9.35;;;;;;;4.92;80.68;102545.80;1634203;86;22127;-90
2022/11/27 03:12:59;;;;;;;13.60;8.75;;;;;;;4.94;80.70;102558.59;1648813;86;21715;-92
2022/11/27 03:15:28;;;;;;;12.98;8.83;;;;;;;4.94;80.66;102553.38;1629622;86;22673;-91
2022/11/27 03:18:01;;;;;;;13.88;8.18;;;;;;;4.96;80.69;102548.78;1638729;86;21083;-91
2022/11/27 03:20:34;;;;;;;11.45;7.97;;;;;;;4.98;80.64;102547.19;1646353;86;21171;-91
2022/11/27 03:23:04;;;;;;;14.33;8.55;;;;;;;4.99;80.62;102549.03;1629519;84;20958;-91
2022/11/27 03:25:30;;;;;;;10.93;8.23;;;;;;;5.01;80.57;102555.64;1657530;84;21704;-90
2022/11/27 03:28:06;;;;;;;12.40;8.50;;;;;;;4.99;80.53;102556.86;1650094;84;21060;-90
2022/11/27 03:30:32;;;;;;;11.55;7.97;;;;;;;4.97;80.49;102559.71;1666125;84;21067;-91
2022/11/27 03:33:00;;;;;;;13.13;8.53;;;;;;;4.96;80.51;102563.53;1663067;84;21038;-91
2022/11/27 03:35:27;;;;;;;13.03;8.78;;;;;;;4.92;80.50;102559.78;1655380;84;21605;-91
2022/11/27 03:37:53;;;;;;;12.73;8.08;;;;;;;4.91;80.50;102564.47;1658616;84;21570;-91
2022/11/27 03:40:20;;;;;;;13.38;8.50;;;;;;;4.89;80.53;102569.06;1657586;84;21049;-91
2022/11/27 03:43:03;;;;;;;11.68;8.33;;;;;;;4.87;80.59;102567.23;1654747;84;21040;-90
2022/11/27 03:46:12;;;;;;;13.53;8.58;;;;;;;4.86;80.64;102560.59;1645870;84;21096;-91
2022/11/27 03:49:11;;;;;;;10.82;8.03;;;;;;;4.85;80.64;102565.31;1657542;84;21064;-89
2022/11/27 03:51:51;;;;;;;15.10;9.10;;;;;;;4.84;80.69;102560.87;1660876;84;21738;-90
2022/11/27 03:54:46;;;;;;;12.82;8.48;;;;;;;4.85;80.68;102563.60;1630737;85;22029;-90
2022/11/27 03:57:24;;;;;;;11.57;8.58;;;;;;;4.85;80.73;102562.70;1622457;85;21143;-90
2022/11/27 03:59:51;;;;;;;14.13;9.33;;;;;;;4.84;80.78;102562.17;1656506;84;22300;-91
2022/11/27 04:02:27;;;;;;;13.72;8.98;;;;;;;4.84;80.86;102561.80;1652561;84;21100;-91
2022/11/27 04:04:54;;;;;;;13.68;9.88;;;;;;;4.86;80.87;102561.89;1657064;84;21648;-89
2022/11/27 04:07:20;;;;;;;16.35;10.63;;;;;;;4.86;80.92;102560.59;1654442;84;21118;-91
2022/11/27 04:09:47;;;;;;;17.27;11.40;;;;;;;4.85;80.89;102564.00;1652974;84;21122;-90
2022/11/27 04:12:14;;;;;;;17.80;11.45;;;;;;;4.84;80.92;102563.11;1652046;84;21062;-89
2022/11/27 04:14:40;;;;;;;20.15;13.03;;;;;;;4.85;80.99;102566.62;1642918;84;22086;-90
2022/11/27 04:17:07;;;;;;;18.15;12.07;;;;;;;4.84;80.99;102561.80;1666222;84;22447;-90
2022/11/27 04:19:34;;;;;;;19.23;12.30;;;;;;;4.84;81.03;102563.48;1652272;84;21086;-89
2022/11/27 04:22:01;;;;;;;19.45;12.80;;;;;;;4.84;81.12;102566.09;1647200;84;21524;-90
2022/11/27 04:24:28;;;;;;;20.65;13.60;;;;;;;4.85;81.18;102566.21;1655840;84;21125;-90
2022/11/27 04:26:54;;;;;;;17.82;12.95;;;;;;;4.86;81.20;102569.35;1646779;84;21078;-90
2022/11/27 04:29:21;;;;;;;22.27;14.15;;;;;;;4.89;81.17;102565.16;1651671;84;22513;-91
2022/11/27 04:31:48;;;;;;;21.93;15.40;;;;;;;4.90;81.24;102564.34;1655745;84;21691;-91
2022/11/27 04:34:15;;;;;;;23.02;16.00;;;;;;;4.90;81.20;102563.04;1655123;84;21073;-91
2022/11/27 04:36:41;;;;;;;24.25;16.87;;;;;;;4.87;81.22;102558.10;1652480;84;21077;-90
2022/11/27 04:39:08;;;;;;;27.60;17.60;;;;;;;4.88;81.25;102560.34;1656491;84;21335;-90
2022/11/27 04:41:34;;;;;;;23.95;16.30;;;;;;;4.87;81.30;102555.49;1655267;84;23461;-91
2022/11/27 04:44:01;;;;;;;24.07;16.37;;;;;;;4.88;81.30;102565.56;1662624;84;21079;-90
2022/11/27 04:46:28;;;;;;;25.97;17.35;;;;;;;4.87;81.32;102560.71;1656679;84;21046;-90
2022/11/27 04:48:54;;;;;;;26.07;17.07;;;;;;;4.88;81.38;102556.43;1664025;84;21683;-91
2022/11/27 04:51:21;;;;;;;25.40;16.30;;;;;;;4.89;81.36;102551.70;1658198;84;20987;-91
2022/11/27 04:53:48;;;;;;;24.55;16.37;;;;;;;4.88;81.42;102556.43;1663821;84;21740;-91
2022/11/27 04:56:14;;;;;;;25.72;17.30;;;;;;;4.90;81.42;102545.71;1644992;83;21567;-91
2022/11/27 04:58:41;;;;;;;25.25;17.10;;;;;;;4.92;81.48;102550.65;1652608;84;21058;-91
2022/11/27 05:01:08;;;;;;;28.95;18.02;;;;;;;4.94;81.48;102542.94;1639200;86;21751;-91
2022/11/27 05:03:35;;;;;;;24.05;17.40;;;;;;;4.96;81.50;102544.86;1624123;85;21137;-90
2022/11/27 05:06:02;;;;;;;27.80;18.15;;;;;;;4.99;81.46;102546.78;1633476;86;21773;-90
2022/11/27 05:08:29;;;;;;;25.15;17.17;;;;;;;4.98;81.48;102550.20;1629096;86;21940;-90
2022/11/27 05:11:06;;;;;;;26.25;17.48;;;;;;;5.00;81.46;102555.14;1630534;86;21074;-90
2022/11/27 05:13:32;;;;;;;28.92;18.37;;;;;;;4.99;81.38;102559.47;1629671;86;21628;-91
2022/11/27 05:15:59;;;;;;;28.57;18.27;;;;;;;4.97;81.43;102554.49;1619350;86;21118;-91
2022/11/27 05:18:26;;;;;;;27.60;18.48;;;;;;;4.97;81.41;102557.51;1643102;84;21896;-91
2022/11/27 05:21:06;;;;;;;32.80;19.52;;;;;;;4.95;81.42;102550.86;1657039;85;20993;-91
2022/11/27 05:23:33;;;;;;;29.85;19.27;;;;;;;4.94;81.43;102552.97;1641967;84;21583;-90
2022/11/27 05:26:00;;;;;;;29.00;18.65;;;;;;;4.95;81.48;102550.86;1643813;84;21050;-91
2022/11/27 05:28:26;;;;;;;30.70;19.15;;;;;;;4.97;81.52;102547.97;1633501;87;21047;-91
2022/11/27 05:30:53;;;;;;;28.62;17.92;;;;;;;4.97;81.45;102541.45;1631286;87;21753;-91
2022/11/27 05:33:20;;;;;;;28.07;18.15;;;;;;;4.97;81.43;102543.16;1632140;86;21540;-92
2022/11/27 05:35:46;;;;;;;30.45;19.00;;;;;;;4.95;81.37;102539.12;1627635;87;21107;-91
2022/11/27 05:38:13;;;;;;;30.02;19.20;;;;;;;4.94;81.38;102536.02;1626516;87;21052;-91
2022/11/27 05:40:40;;;;;;;25.30;17.67;;;;;;;4.91;81.28;102530.55;1626933;87;21150;-90
2022/11/27 05:43:06;;;;;;;32.17;19.05;;;;;;;4.84;81.15;102534.41;1630091;87;21757;-90
2022/11/27 05:45:33;;;;;;;30.00;18.95;;;;;;;4.78;81.12;102535.22;1625219;87;21047;-91
2022/11/27 05:48:00;;;;;;;27.82;18.07;;;;;;;4.71;81.06;102534.26;1631753;86;21897;-91
2022/11/27 05:50:26;;;;;;;28.83;18.87;;;;;;;4.65;81.24;102530.78;1631282;87;21734;-91
2022/11/27 05:52:53;;;;;;;30.72;18.73;;;;;;;4.63;81.21;102528.81;1631002;87;21112;-91
2022/11/27 05:55:20;;;;;;;28.42;20.00;;;;;;;4.54;81.12;102533.31;1636230;86;21758;-92
2022/11/27 05:57:46;;;;;;;28.75;18.70;;;;;;;4.45;81.10;102530.92;1636088;87;21008;-91
2022/11/27 06:00:14;;;;;;;31.97;20.62;;;;;;;4.33;81.06;102535.16;1632072;87;21064;-92
2022/11/27 06:02:41;;;;;;;32.17;20.30;;;;;;;4.18;81.10;102529.23;1630791;86;21052;-91
2022/11/27 06:05:08;;;;;;;32.03;19.57;;;;;;;4.07;81.20;102533.62;1627410;87;21055;-91
2022/11/27 06:07:35;;;;;;;29.45;19.67;;;;;;;3.96;81.23;102540.97;1632699;86;21716;-90
2022/11/27 06:10:02;;;;;;;32.80;19.92;;;;;;;3.85;81.36;102541.80;1633583;87;21448;-90
2022/11/27 06:12:31;;;;;;;30.65;20.90;;;;;;;3.74;81.45;102536.11;1632498;86;21497;-91
2022/11/27 06:14:58;;;;;;;33.35;20.77;;;;;;;3.63;81.56;102536.53;1629455;86;21028;-90
2022/11/27 06:17:24;;;;;;;31.73;20.95;;;;;;;3.54;81.71;102535.37;1631253;87;21405;-92
2022/11/27 06:19:53;;;;;;;33.98;21.12;;;;;;;3.44;81.88;102537.63;1632192;86;21058;-91
2022/11/27 06:22:19;;;;;;;35.55;21.33;;;;;;;3.38;81.99;102541.39;1628966;87;21006;-91
2022/11/27 06:24:46;;;;;;;36.03;23.57;;;;;;;3.30;82.11;102553.41;1628673;86;21043;-90
2022/11/27 06:27:13;;;;;;;34.70;23.27;;;;;;;3.26;82.31;102558.22;1637306;85;21030;-90
2022/11/27 06:29:40;;;;;;;33.53;22.67;;;;;;;3.21;82.46;102557.84;1640105;85;21031;-91
2022/11/27 06:32:07;;;;;;;37.53;23.65;;;;;;;3.17;82.56;102563.55;1640039;85;21725;-91
2022/11/27 06:34:33;;;;;;;39.67;25.20;;;;;;;3.12;82.70;102557.07;1649595;85;21084;-90
2022/11/27 06:37:00;;;;;;;40.25;24.67;;;;;;;3.09;82.80;102564.20;1646995;85;21044;-91
2022/11/27 06:39:27;;;;;;;37.88;23.07;;;;;;;3.07;82.98;102560.97;1644820;85;21019;-90
2022/11/27 06:41:54;;;;;;;38.33;22.70;;;;;;;3.03;83.09;102555.89;1641972;85;20993;-90
2022/11/27 06:44:20;;;;;;;32.98;22.32;;;;;;;3.01;83.23;102553.95;1641157;85;21903;-90
2022/11/27 06:46:47;;;;;;;39.92;21.73;;;;;;;3.01;83.31;102557.86;1634044;85;21025;-91
2022/11/27 06:49:14;;;;;;;34.53;21.02;;;;;;;2.99;83.38;102549.02;1640018;85;20992;-90
2022/11/27 06:51:41;;;;;;;35.15;21.30;;;;;;;2.98;83.40;102551.98;1644841;85;21007;-91
2022/11/27 06:54:07;;;;;;;36.28;22.35;;;;;;;2.97;83.46;102549.28;1640755;85;21020;-90
2022/11/27 06:56:34;;;;;;;35.03;21.73;;;;;;;2.96;83.48;102550.95;1647349;84;21803;-89
2022/11/27 06:59:01;;;;;;;36.03;22.58;;;;;;;2.95;83.51;102555.65;1659542;85;21004;-87
2022/11/27 07:01:28;;;;;;;39.33;22.80;;;;;;;2.95;83.59;102556.95;1658848;85;21060;-87
2022/11/27 07:03:55;;;;;;;40.58;24.00;;;;;;;2.95;83.64;102548.21;1660537;85;21418;-86
2022/11/27 07:06:23;;;;;;;38.23;23.67;;;;;;;2.95;83.70;102545.61;1665000;83;21484;-86
2022/11/27 07:08:49;;;;;;;39.95;24.82;;;;;;;2.97;83.73;102548.88;1667341;83;21697;-87
2022/11/27 07:11:19;;;;;;;39.88;23.75;;;;;;;2.98;83.78;102553.28;1670571;84;20941;-87
2022/11/27 07:13:47;;;;;;;35.68;22.70;;;;;;;3.00;83.83;102546.52;1666774;83;21013;-87
2022/11/27 07:16:16;;;;;;;37.13;21.62;;;;;;;3.01;83.85;102547.45;1664109;83;21040;-88
2022/11/27 07:18:48;;;;;;;37.20;22.05;;;;;;;3.01;83.87;102556.16;1638745;85;21008;-87
2022/11/27 07:21:16;;;;;;;34.90;21.33;;;;;;;3.04;83.97;102552.89;1615501;87;22019;-87
2022/11/27 07:23:44;;;;;;;34.92;21.17;;;;;;;3.12;84.17;102549.27;1617071;88;21856;-87
2022/11/27 07:26:20;;;;;;;37.35;22.42;;;;;;;3.21;84.33;102555.24;1617920;88;21052;-87
2022/11/27 07:28:48;;;;;;;36.77;22.50;;;;;;;3.30;84.46;102555.08;1613010;88;21267;-87
2022/11/27 07:31:21;;;;;;;36.20;22.55;;;;;;;3.44;84.63;102557.55;1609896;88;21071;-87
2022/11/27 07:33:48;;;;;;;36.00;22.20;;;;;;;3.59;84.77;102550.99;1613419;88;21745;-87
2022/11/27 07:36:18;;;;;;;35.70;21.25;;;;;;;3.77;84.82;102559.78;1610205;88;21104;-89
2022/11/27 07:38:45;;;;;;;33.18;21.05;;;;;;;3.91;84.80;102555.31;1630132;86;21450;-88
2022/11/27 07:41:12;;;;;;;38.13;23.38;;;;;;;4.07;84.72;102558.74;1658139;85;21016;-88
2022/11/27 07:43:40;;;;;;;39.10;22.05;;;;;;;4.16;84.55;102559.48;1655467;85;21473;-88
2022/11/27 07:46:15;;;;;;;35.17;23.00;;;;;;;4.25;84.42;102555.41;1666043;85;21898;-88
2022/11/27 07:48:41;;;;;;;32.35;19.82;;;;;;;4.32;84.28;102556.78;1663456;85;21048;-93
2022/11/27 07:51:09;;;;;;;32.45;19.95;;;;;;;4.39;84.08;102561.70;1660512;85;21082;-96
2022/11/27 07:53:39;;;;;;;38.05;22.77;;;;;;;4.40;83.89;102563.13;1666967;85;21460;-90
2022/11/27 07:56:07;;;;;;;37.90;21.82;;;;;;;4.43;83.90;102564.70;1666683;84;21553;-94
2022/11/27 07:58:34;;;;;;;35.55;22.07;;;;;;;4.45;83.70;102568.73;1665568;85;22953;-94
2022/11/27 08:01:03;;;;;;;43.63;25.50;;;;;;;4.45;83.59;102568.73;1665529;85;21071;-94
2022/11/27 08:03:29;;;;;;;39.35;24.02;;;;;;;4.46;83.62;102572.73;1653643;83;21042;-94
2022/11/27 08:05:56;;;;;;;37.15;22.22;;;;;;;4.46;83.51;102568.82;1670893;83;21651;-93
2022/11/27 08:08:23;;;;;;;37.38;21.55;;;;;;;4.48;83.54;102576.37;1670225;83;20982;-93
2022/11/27 08:10:50;;;;;;;35.50;20.57;;;;;;;4.54;83.69;102575.94;1661812;85;21986;-93
2022/11/27 08:13:17;;;;;;;33.25;21.35;;;;;;;4.63;83.74;102577.97;1664655;84;21659;-92
2022/11/27 08:15:44;;;;;;;32.58;20.68;;;;;;;4.70;83.64;102575.46;1662275;84;21173;-94
2022/11/27 08:18:11;;;;;;;33.78;19.95;;;;;;;4.75;83.66;102576.73;1664299;84;21939;-92
2022/11/27 08:20:38;;;;;;;30.70;19.32;;;;;;;4.84;83.61;102582.67;1673620;83;21109;-91
2022/11/27 08:23:05;;;;;;;32.60;20.32;;;;;;;4.85;83.39;102569.23;1662042;85;21756;-95
2022/11/27 08:25:32;;;;;;;32.08;19.87;;;;;;;4.87;83.33;102570.25;1669330;85;21046;-93
2022/11/27 08:27:59;;;;;;;30.12;20.15;;;;;;;4.95;83.44;102572.14;1666394;84;21055;-93
2022/11/27 08:30:26;;;;;;;31.80;21.45;;;;;;;4.99;83.26;102565.06;1635233;85;38912;-93
2022/11/27 08:32:53;;;;;;;31.00;19.95;;;;;;;5.02;83.22;102574.03;1665716;84;21067;-91
2022/11/27 08:35:21;;;;;;;33.23;22.02;;;;;;;5.08;83.25;102566.16;1659205;85;21767;-91
2022/11/27 08:37:48;;;;;;;31.87;20.05;;;;;;;5.19;83.33;102573.12;1634265;86;21094;-92
2022/11/27 08:40:14;;;;;;;28.80;18.40;;;;;;;5.25;83.16;102573.57;1614814;87;21051;-91
2022/11/27 08:42:41;;;;;;;30.37;19.57;;;;;;;5.32;83.10;102585.41;1618096;87;21580;-88
2022/11/27 08:45:09;;;;;;;29.18;18.15;;;;;;;5.39;83.12;102585.98;1625174;87;22164;-91
2022/11/27 08:47:35;;;;;;;31.62;20.48;;;;;;;5.46;82.97;102582.11;1621693;87;21741;-92
2022/11/27 08:50:02;;;;;;;27.35;17.65;;;;;;;5.53;82.92;102580.47;1623424;87;21070;-91
2022/11/27 08:52:29;;;;;;;24.80;17.35;;;;;;;5.58;82.72;102579.13;1604855;87;21102;-93
2022/11/27 08:54:56;;;;;;;23.83;16.48;;;;;;;5.56;82.50;102575.48;1629355;87;21171;-89
2022/11/27 08:57:23;;;;;;;28.55;17.85;;;;;;;5.57;82.46;102574.67;1619174;86;21154;-89
2022/11/27 08:59:49;;;;;;;26.23;17.23;;;;;;;5.59;82.57;102569.20;1658745;83;21768;-89
2022/11/27 09:02:18;;;;;;;28.05;18.55;;;;;;;5.65;82.48;102568.75;1643900;85;21184;-90
2022/11/27 09:04:46;;;;;;;29.42;18.32;;;;;;;5.68;82.46;102567.64;1654413;84;21018;-90
2022/11/27 09:07:14;;;;;;;29.18;18.65;;;;;;;5.78;82.41;102574.45;1647292;84;21079;-88
2022/11/27 09:09:41;;;;;;;28.70;17.45;;;;;;;5.81;82.31;102579.51;1656151;84;21127;-89
2022/11/27 09:12:08;;;;;;;27.30;18.80;;;;;;;5.82;82.16;102574.81;1658244;83;22404;-89
2022/11/27 09:14:34;;;;;;;31.42;20.25;;;;;;;5.87;82.24;102571.20;1653448;84;22007;-91
2022/11/27 09:17:01;;;;;;;33.48;21.75;;;;;;;5.94;82.21;102571.27;1656633;84;20988;-95
2022/11/27 09:19:28;;;;;;;33.65;21.30;;;;;;;6.00;82.18;102570.44;1627466;86;21961;-89
2022/11/27 09:21:55;;;;;;;33.95;21.97;;;;;;;6.05;82.12;102576.92;1628924;85;21110;-89
2022/11/27 09:24:21;;;;;;;30.48;20.62;;;;;;;6.12;82.01;102576.57;1609298;86;21702;-89
2022/11/27 09:26:48;;;;;;;33.53;20.60;;;;;;;6.18;81.99;102577.41;1626398;86;21090;-91
2022/11/27 09:29:15;;;;;;;28.52;18.80;;;;;;;6.21;81.88;102581.16;1658070;84;21142;-89
2022/11/27 09:31:42;;;;;;;29.10;19.37;;;;;;;6.27;81.81;102583.69;1652716;84;21076;-89
2022/11/27 09:34:09;;;;;;;29.72;19.87;;;;;;;6.30;81.71;102575.66;1656649;84;21113;-89
2022/11/27 09:36:35;;;;;;;28.87;20.32;;;;;;;6.38;81.65;102580.13;1674232;84;21750;-90
2022/11/27 09:39:02;;;;;;;30.70;19.30;;;;;;;6.41;81.50;102576.03;1655400;84;21090;-89
2022/11/27 09:41:40;;;;;;;28.07;18.95;;;;;;;6.46;81.48;102578.05;1658828;84;21504;-89
2022/11/27 09:44:38;;;;;;;29.25;18.48;;;;;;;6.52;81.47;102577.20;1658755;84;21069;-89
2022/11/27 09:47:28;;;;;;;220.65;99.40;;;;;;;6.60;81.46;102578.23;1649309;83;22660;-89
2022/11/27 09:50:01;;;;;;;56.68;34.90;;;;;;;6.61;81.23;102568.70;1654278;83;21766;-90
2022/11/27 09:52:48;;;;;;;44.20;27.07;;;;;;;6.67;81.14;102566.50;1652351;84;20988;-89
2022/11/27 09:55:22;;;;;;;34.25;22.02;;;;;;;6.70;81.02;102567.11;1628921;85;21163;-89
2022/11/27 09:57:57;;;;;;;30.75;20.90;;;;;;;6.74;81.05;102568.75;1631130;84;21090;-89
2022/11/27 10:00:24;;;;;;;27.73;18.07;;;;;;;6.79;80.96;102566.06;1646225;84;21672;-89
2022/11/27 10:02:51;;;;;;;29.82;20.48;;;;;;;6.83;80.82;102568.46;1631618;84;22508;-88
2022/11/27 10:05:24;;;;;;;28.15;20.17;;;;;;;6.85;80.70;102568.20;1685732;84;21096;-89
2022/11/27 10:08:04;;;;;;;32.80;21.70;;;;;;;6.89;80.69;102565.36;1683377;83;21496;-89
2022/11/27 10:10:43;;;;;;;27.55;19.48;;;;;;;6.93;80.57;102559.56;1654682;84;21043;-89
2022/11/27 10:13:30;;;;;;;27.45;19.40;;;;;;;6.95;80.54;102553.62;1657992;84;21061;-89
2022/11/27 10:16:37;;;;;;;29.00;19.75;;;;;;;6.98;80.50;102556.45;1660779;84;21770;-89
2022/11/27 10:19:24;;;;;;;30.45;19.67;;;;;;;7.02;80.43;102553.65;1649904;85;21093;-91
2022/11/27 10:22:07;;;;;;;29.92;20.82;;;;;;;7.02;80.27;102548.41;1651421;85;21091;-88
2022/11/27 10:24:45;;;;;;;29.92;20.35;;;;;;;7.03;80.23;102548.00;1632449;85;21819;-89
2022/11/27 10:27:17;;;;;;;31.30;20.85;;;;;;;7.05;80.39;102547.70;1682766;83;21072;-89
2022/11/27 10:29:52;;;;;;;37.30;24.87;;;;;;;7.13;80.50;102542.57;1679068;83;21816;-89
2022/11/27 10:32:24;;;;;;;34.95;23.50;;;;;;;7.21;80.42;102544.02;1691408;83;21165;-89
2022/11/27 10:35:18;;;;;;;41.18;26.75;;;;;;;7.26;80.36;102543.90;1684629;83;21044;-96
2022/11/27 10:37:50;;;;;;;35.98;24.47;;;;;;;7.31;80.31;102549.47;1687281;83;21066;-89
2022/11/27 10:40:49;;;;;;;32.73;21.70;;;;;;;7.37;80.20;102547.25;1689710;83;21086;-90
2022/11/27 10:43:22;;;;;;;32.58;21.40;;;;;;;7.43;80.23;102540.20;1689583;83;21799;-89
2022/11/27 10:45:59;;;;;;;30.90;21.35;;;;;;;7.49;80.20;102539.28;1682822;83;21067;-89
2022/11/27 10:48:27;;;;;;;31.25;20.43;;;;;;;7.56;80.10;102536.27;1679312;83;21627;-87
2022/11/27 10:50:53;;;;;;;32.73;20.88;;;;;;;7.62;80.12;102536.70;1691776;83;21200;-89
2022/11/27 10:53:34;;;;;;;32.93;21.57;;;;;;;7.67;79.91;102540.91;1682235;83;21130;-89
2022/11/27 10:56:18;;;;;;;34.80;21.97;;;;;;;7.65;79.70;102538.59;1682242;83;21914;-89
2022/11/27 10:58:56;;;;;;;;;;;;;;;7.71;79.87;102534.65;1683861;83;21145;-87
2022/11/27 11:01:24;;;;;;;29.95;20.97;;;;;;;7.74;79.61;102537.48;1684670;83;21024;-89
2022/11/27 11:04:05;;;;;;;30.77;22.45;;;;;;;7.74;79.53;102536.58;1687237;83;21082;-87
2022/11/27 11:06:42;;;;;;;31.35;20.43;;;;;;;7.76;79.54;102533.24;1684962;82;21397;-88
2022/11/27 11:09:30;;;;;;;32.50;21.87;;;;;;;7.78;79.46;102526.80;1693408;83;21741;-88
2022/11/27 11:12:19;;;;;;;32.40;21.75;;;;;;;7.83;79.47;102528.39;1690857;83;21121;-90
2022/11/27 11:14:59;;;;;;;28.95;20.97;;;;;;;7.87;79.43;102524.77;1682443;83;21050;-90
2022/11/27 11:17:37;;;;;;;29.48;20.48;;;;;;;7.91;79.40;102515.39;1684405;83;21058;-87
2022/11/27 11:20:19;;;;;;;33.05;21.50;;;;;;;7.95;79.20;102522.63;1673301;82;77487;-93
2022/11/27 11:22:46;;;;;;;31.45;22.17;;;;;;;7.94;79.11;102516.91;1710866;83;22045;-89
2022/11/27 11:25:18;;;;;;;33.65;22.32;;;;;;;7.96;79.09;102518.80;1709932;83;21588;-87
2022/11/27 11:27:45;;;;;;;32.30;22.62;;;;;;;7.97;79.01;102519.29;1705904;82;21037;-86
2022/11/27 11:30:21;;;;;;;33.50;22.48;;;;;;;7.97;78.90;102515.36;1713711;82;21090;-87
2022/11/27 11:32:48;;;;;;;31.95;23.05;;;;;;;8.00;78.97;102516.39;1716066;82;21140;-87
2022/11/27 11:35:33;;;;;;;32.65;22.73;;;;;;;8.02;78.83;102510.42;1699629;82;22473;-88
2022/11/27 11:38:02;;;;;;;32.05;22.40;;;;;;;8.04;78.86;102510.53;1695929;82;21615;-88